CSZ9396 ZSCN-ZGNN
Flight info
| Callsign | CSZ9396 |
|---|---|
| Flight time | 1h 46m |
| Altitude | 36100 |
| Route | BIR91D BIRIR W226 OLTUS R343 LBN LBN18A |
| Aircraft | B738/M-SDE2E3FGHIRWXY/LB1 |
Departure
| Time | 2026-05-05 05:31 |
|---|---|
| Airport | Nanchang Changbei International Airport (ZSCN) |
Arrival
| Time | 2026-05-05 07:17 |
|---|---|
| Airport | Nanning Wuxu International Airport (ZGNN) |
| Time | Latitude | Longitude | Altitude | Speed | Heading |
|---|---|---|---|---|---|
| 2026-05-05 05:12 | 28.86566 | 115.90951 | 145 ft | 0 kts | 87° |
| 2026-05-05 05:19 | 28.86563 | 115.90939 | 146 ft | 2 kts | 68° |
| 2026-05-05 05:19 | 28.86562 | 115.90923 | 146 ft | 2 kts | 91° |
| 2026-05-05 05:19 | 28.86563 | 115.90906 | 146 ft | 2 kts | 110° |
| 2026-05-05 05:19 | 28.86570 | 115.90891 | 147 ft | 2 kts | 128° |
| 2026-05-05 05:20 | 28.86581 | 115.90879 | 147 ft | 2 kts | 147° |
| 2026-05-05 05:20 | 28.86594 | 115.90871 | 147 ft | 2 kts | 166° |
| 2026-05-05 05:20 | 28.86603 | 115.90870 | 147 ft | 1 kts | 176° |
| 2026-05-05 05:20 | 28.86608 | 115.90870 | 147 ft | 0 kts | 177° |
| 2026-05-05 05:22 | 28.86606 | 115.90870 | 147 ft | 0 kts | 177° |
| 2026-05-05 05:23 | 28.86590 | 115.90870 | 147 ft | 4 kts | 182° |
| 2026-05-05 05:23 | 28.86555 | 115.90870 | 147 ft | 5 kts | 176° |
| 2026-05-05 05:23 | 28.86505 | 115.90874 | 147 ft | 11 kts | 176° |
| 2026-05-05 05:23 | 28.86416 | 115.90881 | 146 ft | 14 kts | 176° |
| 2026-05-05 05:24 | 28.86336 | 115.90856 | 145 ft | 11 kts | 232° |
| 2026-05-05 05:24 | 28.86299 | 115.90781 | 145 ft | 8 kts | 268° |
| 2026-05-05 05:24 | 28.86320 | 115.90708 | 145 ft | 11 kts | 291° |
| 2026-05-05 05:24 | 28.86273 | 115.90651 | 145 ft | 11 kts | 200° |
| 2026-05-05 05:25 | 28.86196 | 115.90615 | 144 ft | 12 kts | 203° |
| 2026-05-05 05:25 | 28.86121 | 115.90572 | 142 ft | 8 kts | 244° |
| 2026-05-05 05:25 | 28.86135 | 115.90497 | 141 ft | 11 kts | 292° |
| 2026-05-05 05:25 | 28.86151 | 115.90403 | 140 ft | 12 kts | 228° |
| 2026-05-05 05:26 | 28.86066 | 115.90356 | 139 ft | 14 kts | 203° |
| 2026-05-05 05:26 | 28.86032 | 115.90282 | 139 ft | 12 kts | 270° |
| 2026-05-05 05:26 | 28.85973 | 115.90220 | 138 ft | 12 kts | 199° |
| 2026-05-05 05:26 | 28.85884 | 115.90179 | 137 ft | 14 kts | 206° |
| 2026-05-05 05:27 | 28.85783 | 115.90129 | 136 ft | 16 kts | 200° |
| 2026-05-05 05:27 | 28.85673 | 115.90079 | 134 ft | 18 kts | 204° |
| 2026-05-05 05:27 | 28.85417 | 115.89955 | 131 ft | 21 kts | 202° |
| 2026-05-05 05:28 | 28.85273 | 115.89885 | 130 ft | 22 kts | 204° |
| 2026-05-05 05:28 | 28.85131 | 115.89816 | 129 ft | 21 kts | 203° |
| 2026-05-05 05:28 | 28.85049 | 115.89775 | 127 ft | 5 kts | 205° |
| 2026-05-05 05:28 | 28.85035 | 115.89734 | 126 ft | 7 kts | 282° |
| 2026-05-05 05:29 | 28.85055 | 115.89671 | 125 ft | 9 kts | 292° |
| 2026-05-05 05:29 | 28.85079 | 115.89604 | 123 ft | 1 kts | 302° |
| 2026-05-05 05:29 | 28.85106 | 115.89600 | 123 ft | 6 kts | 358° |
| 2026-05-05 05:29 | 28.85127 | 115.89606 | 124 ft | 0 kts | 22° |
| 2026-05-05 05:30 | 28.85156 | 115.89619 | 125 ft | 23 kts | 22° |
| 2026-05-05 05:30 | 28.85588 | 115.89828 | 130 ft | 103 kts | 24° |
| 2026-05-05 05:30 | 28.86450 | 115.90247 | 176 ft | 158 kts | 25° |
| 2026-05-05 05:30 | 28.87508 | 115.90738 | 596 ft | 177 kts | 23° |
| 2026-05-05 05:31 | 28.88748 | 115.91294 | 964 ft | 205 kts | 24° |
| 2026-05-05 05:31 | 28.90059 | 115.91919 | 1737 ft | 206 kts | 24° |
| 2026-05-05 05:31 | 28.91409 | 115.92560 | 2171 ft | 220 kts | 24° |
| 2026-05-05 05:31 | 28.92866 | 115.93253 | 2258 ft | 228 kts | 24° |
| 2026-05-05 05:32 | 28.94325 | 115.93955 | 2238 ft | 227 kts | 24° |
| 2026-05-05 05:32 | 28.95787 | 115.94662 | 2251 ft | 227 kts | 24° |
| 2026-05-05 05:32 | 28.97249 | 115.95373 | 2250 ft | 228 kts | 25° |
| 2026-05-05 05:32 | 28.98753 | 115.96107 | 2579 ft | 241 kts | 24° |
| 2026-05-05 05:33 | 29.00243 | 115.96827 | 3619 ft | 230 kts | 24° |
| 2026-05-05 05:33 | 29.01730 | 115.97395 | 4348 ft | 233 kts | 7° |
| 2026-05-05 05:33 | 29.03325 | 115.97149 | 5074 ft | 234 kts | 335° |
| 2026-05-05 05:33 | 29.04681 | 115.96131 | 5812 ft | 234 kts | 315° |
| 2026-05-05 05:34 | 29.05724 | 115.94762 | 6598 ft | 233 kts | 302° |
| 2026-05-05 05:34 | 29.06380 | 115.93081 | 7317 ft | 234 kts | 279° |
| 2026-05-05 05:34 | 29.06346 | 115.91262 | 8057 ft | 235 kts | 257° |
| 2026-05-05 05:34 | 29.05800 | 115.89492 | 8773 ft | 239 kts | 243° |
| 2026-05-05 05:35 | 29.04795 | 115.87979 | 9486 ft | 244 kts | 220° |
| 2026-05-05 05:35 | 29.03307 | 115.87095 | 10214 ft | 250 kts | 197° |
| 2026-05-05 05:35 | 29.01581 | 115.86838 | 10978 ft | 254 kts | 180° |
| 2026-05-05 05:35 | 28.99815 | 115.86935 | 11701 ft | 258 kts | 180° |
| 2026-05-05 05:36 | 28.98040 | 115.86704 | 12452 ft | 259 kts | 197° |
| 2026-05-05 05:36 | 28.96323 | 115.86030 | 13226 ft | 260 kts | 204° |
| 2026-05-05 05:36 | 28.94656 | 115.85221 | 13921 ft | 266 kts | 206° |
| 2026-05-05 05:36 | 28.92924 | 115.84333 | 14394 ft | 282 kts | 206° |
| 2026-05-05 05:37 | 28.91100 | 115.83411 | 14876 ft | 297 kts | 206° |
| 2026-05-05 05:37 | 28.89153 | 115.82451 | 15363 ft | 312 kts | 205° |
| 2026-05-05 05:37 | 28.87100 | 115.81454 | 15824 ft | 327 kts | 205° |
| 2026-05-05 05:37 | 28.84957 | 115.80418 | 16273 ft | 343 kts | 205° |
| 2026-05-05 05:38 | 28.82719 | 115.79337 | 16715 ft | 359 kts | 205° |
| 2026-05-05 05:38 | 28.80345 | 115.78191 | 17155 ft | 374 kts | 205° |
| 2026-05-05 05:38 | 28.77913 | 115.77016 | 17611 ft | 388 kts | 205° |
| 2026-05-05 05:38 | 28.75402 | 115.75804 | 18353 ft | 392 kts | 205° |
| 2026-05-05 05:39 | 28.72896 | 115.74596 | 19078 ft | 396 kts | 205° |
| 2026-05-05 05:39 | 28.70342 | 115.73365 | 19817 ft | 400 kts | 205° |
| 2026-05-05 05:39 | 28.67789 | 115.72135 | 20510 ft | 403 kts | 206° |
| 2026-05-05 05:39 | 28.65182 | 115.70879 | 21203 ft | 406 kts | 206° |
| 2026-05-05 05:40 | 28.62598 | 115.69635 | 21899 ft | 409 kts | 206° |
| 2026-05-05 05:40 | 28.59982 | 115.68375 | 22573 ft | 411 kts | 207° |
| 2026-05-05 05:40 | 28.57344 | 115.67004 | 23127 ft | 414 kts | 211° |
| 2026-05-05 05:40 | 28.54892 | 115.65318 | 23818 ft | 411 kts | 220° |
| 2026-05-05 05:41 | 28.52739 | 115.63238 | 24411 ft | 410 kts | 229° |
| 2026-05-05 05:41 | 28.50892 | 115.60815 | 25039 ft | 408 kts | 236° |
| 2026-05-05 05:41 | 28.49288 | 115.58162 | 25642 ft | 408 kts | 242° |
| 2026-05-05 05:41 | 28.47980 | 115.55281 | 26112 ft | 410 kts | 250° |
| 2026-05-05 05:42 | 28.47120 | 115.52232 | 26721 ft | 408 kts | 258° |
| 2026-05-05 05:42 | 28.46525 | 115.49081 | 27240 ft | 410 kts | 261° |
| 2026-05-05 05:42 | 28.46048 | 115.45892 | 27768 ft | 411 kts | 262° |
| 2026-05-05 05:42 | 28.45618 | 115.42687 | 28279 ft | 414 kts | 263° |
| 2026-05-05 05:43 | 28.45196 | 115.39443 | 28762 ft | 416 kts | 263° |
| 2026-05-05 05:43 | 28.44771 | 115.36204 | 29293 ft | 417 kts | 263° |
| 2026-05-05 05:43 | 28.44341 | 115.32977 | 29686 ft | 420 kts | 262° |
| 2026-05-05 05:43 | 28.43893 | 115.29680 | 30147 ft | 420 kts | 262° |
| 2026-05-05 05:44 | 28.43445 | 115.26434 | 30601 ft | 421 kts | 262° |
| 2026-05-05 05:44 | 28.42989 | 115.23162 | 31192 ft | 417 kts | 262° |
| 2026-05-05 05:44 | 28.42540 | 115.19967 | 31800 ft | 412 kts | 262° |
| 2026-05-05 05:44 | 28.42091 | 115.16790 | 32395 ft | 406 kts | 262° |
| 2026-05-05 05:45 | 28.41649 | 115.13673 | 33126 ft | 397 kts | 262° |
| 2026-05-05 05:45 | 28.41214 | 115.10610 | 33626 ft | 396 kts | 263° |
| 2026-05-05 05:45 | 28.40772 | 115.07496 | 33778 ft | 403 kts | 263° |
| 2026-05-05 05:45 | 28.40325 | 115.04356 | 34215 ft | 402 kts | 263° |
| 2026-05-05 05:46 | 28.39882 | 115.01252 | 34663 ft | 401 kts | 262° |
| 2026-05-05 05:46 | 28.39434 | 114.98126 | 35111 ft | 400 kts | 262° |
| 2026-05-05 05:46 | 28.38989 | 114.95022 | 35492 ft | 401 kts | 263° |
| 2026-05-05 05:46 | 28.38541 | 114.91908 | 35828 ft | 402 kts | 263° |
| 2026-05-05 05:47 | 28.38092 | 114.88777 | 36031 ft | 404 kts | 263° |
| 2026-05-05 05:47 | 28.37638 | 114.85617 | 36040 ft | 405 kts | 263° |
| 2026-05-05 05:47 | 28.36734 | 114.79369 | 36043 ft | 400 kts | 263° |
| 2026-05-05 05:48 | 28.35834 | 114.73155 | 36041 ft | 402 kts | 263° |
| 2026-05-05 05:48 | 28.34930 | 114.66930 | 36049 ft | 401 kts | 263° |
| 2026-05-05 05:49 | 28.34022 | 114.60701 | 36054 ft | 402 kts | 263° |
| 2026-05-05 05:49 | 28.33106 | 114.54446 | 36058 ft | 402 kts | 263° |
| 2026-05-05 05:50 | 28.32192 | 114.48221 | 36063 ft | 402 kts | 263° |
| 2026-05-05 05:50 | 28.31268 | 114.41956 | 36067 ft | 402 kts | 263° |
| 2026-05-05 05:51 | 28.30357 | 114.35722 | 36074 ft | 403 kts | 264° |
| 2026-05-05 05:51 | 28.29603 | 114.29473 | 36078 ft | 401 kts | 265° |
| 2026-05-05 05:52 | 28.28910 | 114.23190 | 36079 ft | 402 kts | 265° |
| 2026-05-05 05:52 | 28.28207 | 114.16936 | 36077 ft | 403 kts | 265° |
| 2026-05-05 05:53 | 28.27483 | 114.10659 | 36071 ft | 402 kts | 265° |
| 2026-05-05 05:53 | 28.26752 | 114.04385 | 36068 ft | 403 kts | 265° |
| 2026-05-05 05:54 | 28.26015 | 113.98106 | 36065 ft | 403 kts | 265° |
| 2026-05-05 05:54 | 28.25271 | 113.91817 | 36071 ft | 404 kts | 265° |
| 2026-05-05 05:55 | 28.24527 | 113.85540 | 36064 ft | 403 kts | 265° |
| 2026-05-05 05:55 | 28.23781 | 113.79269 | 36059 ft | 403 kts | 265° |
| 2026-05-05 05:56 | 28.23029 | 113.72983 | 36049 ft | 403 kts | 265° |
| 2026-05-05 05:56 | 28.22272 | 113.66704 | 36062 ft | 403 kts | 265° |
| 2026-05-05 05:57 | 28.21506 | 113.60394 | 36053 ft | 403 kts | 266° |
| 2026-05-05 05:57 | 28.20735 | 113.54086 | 36053 ft | 404 kts | 266° |
| 2026-05-05 05:58 | 28.19967 | 113.47829 | 36052 ft | 403 kts | 266° |
| 2026-05-05 05:58 | 28.19195 | 113.41528 | 36046 ft | 403 kts | 266° |
| 2026-05-05 05:59 | 28.18425 | 113.35246 | 36047 ft | 404 kts | 266° |
| 2026-05-05 05:59 | 28.17651 | 113.28950 | 36042 ft | 405 kts | 265° |
| 2026-05-05 06:00 | 28.16878 | 113.22672 | 36037 ft | 402 kts | 265° |
| 2026-05-05 06:00 | 28.16098 | 113.16376 | 36036 ft | 404 kts | 266° |
| 2026-05-05 06:01 | 28.15321 | 113.10117 | 36031 ft | 404 kts | 266° |
| 2026-05-05 06:01 | 28.14533 | 113.03826 | 36030 ft | 402 kts | 266° |
| 2026-05-05 06:02 | 28.13797 | 112.97594 | 36028 ft | 401 kts | 268° |
| 2026-05-05 06:02 | 28.13683 | 112.91299 | 36021 ft | 398 kts | 275° |
| 2026-05-05 06:03 | 28.14028 | 112.85115 | 36029 ft | 397 kts | 277° |
| 2026-05-05 06:03 | 28.14432 | 112.78888 | 36033 ft | 397 kts | 277° |
| 2026-05-05 06:04 | 28.14816 | 112.72651 | 36031 ft | 396 kts | 277° |
| 2026-05-05 06:04 | 28.15181 | 112.66467 | 36028 ft | 396 kts | 277° |
| 2026-05-05 06:05 | 28.15536 | 112.60260 | 36041 ft | 396 kts | 277° |
| 2026-05-05 06:05 | 28.15886 | 112.54046 | 36029 ft | 396 kts | 277° |
| 2026-05-05 06:06 | 28.16233 | 112.47829 | 36027 ft | 396 kts | 277° |
| 2026-05-05 06:06 | 28.16571 | 112.41618 | 36029 ft | 396 kts | 276° |
| 2026-05-05 06:07 | 28.16235 | 112.35371 | 36026 ft | 406 kts | 263° |
| 2026-05-05 06:07 | 28.14122 | 112.29411 | 36026 ft | 419 kts | 248° |
| 2026-05-05 06:08 | 28.10585 | 112.24025 | 36026 ft | 437 kts | 232° |
| 2026-05-05 06:08 | 28.05779 | 112.19703 | 36024 ft | 446 kts | 223° |
| 2026-05-05 06:09 | 28.00501 | 112.16020 | 36037 ft | 450 kts | 219° |
| 2026-05-05 06:09 | 27.95033 | 112.12472 | 36036 ft | 453 kts | 218° |
| 2026-05-05 06:10 | 27.89618 | 112.08854 | 36042 ft | 449 kts | 219° |
| 2026-05-05 06:10 | 27.84310 | 112.05204 | 36037 ft | 448 kts | 220° |
| 2026-05-05 06:11 | 27.78976 | 112.01498 | 36040 ft | 449 kts | 220° |
| 2026-05-05 06:11 | 27.73685 | 111.97807 | 36029 ft | 448 kts | 220° |
| 2026-05-05 06:12 | 27.68364 | 111.94093 | 36036 ft | 449 kts | 220° |
| 2026-05-05 06:12 | 27.63072 | 111.90405 | 36055 ft | 449 kts | 221° |
| 2026-05-05 06:13 | 27.57772 | 111.86719 | 36076 ft | 445 kts | 221° |
| 2026-05-05 06:13 | 27.52492 | 111.83048 | 36103 ft | 447 kts | 221° |
| 2026-05-05 06:14 | 27.47208 | 111.79378 | 36118 ft | 446 kts | 221° |
| 2026-05-05 06:14 | 27.41929 | 111.75715 | 36111 ft | 446 kts | 221° |
| 2026-05-05 06:15 | 27.36645 | 111.72053 | 36092 ft | 446 kts | 221° |
| 2026-05-05 06:15 | 27.31392 | 111.68420 | 36064 ft | 445 kts | 221° |
| 2026-05-05 06:16 | 27.26110 | 111.64771 | 36042 ft | 444 kts | 221° |
| 2026-05-05 06:16 | 27.20846 | 111.61137 | 36031 ft | 446 kts | 221° |
| 2026-05-05 06:17 | 27.15561 | 111.57504 | 36033 ft | 445 kts | 220° |
| 2026-05-05 06:17 | 27.10240 | 111.53971 | 36034 ft | 446 kts | 220° |
| 2026-05-05 06:18 | 27.04897 | 111.50478 | 36033 ft | 445 kts | 220° |
| 2026-05-05 06:18 | 26.99545 | 111.46974 | 36030 ft | 443 kts | 220° |
| 2026-05-05 06:19 | 26.94216 | 111.43483 | 36032 ft | 445 kts | 220° |
| 2026-05-05 06:19 | 26.88899 | 111.39919 | 36042 ft | 443 kts | 222° |
| 2026-05-05 06:20 | 26.83760 | 111.36156 | 36045 ft | 440 kts | 223° |
| 2026-05-05 06:20 | 26.78697 | 111.32371 | 36051 ft | 442 kts | 223° |
| 2026-05-05 06:21 | 26.73557 | 111.28556 | 36056 ft | 441 kts | 223° |
| 2026-05-05 06:21 | 26.68451 | 111.24799 | 36062 ft | 442 kts | 223° |
| 2026-05-05 06:22 | 26.63325 | 111.21037 | 36061 ft | 438 kts | 223° |
| 2026-05-05 06:22 | 26.58227 | 111.17313 | 36070 ft | 441 kts | 222° |
| 2026-05-05 06:23 | 26.53019 | 111.13640 | 36071 ft | 442 kts | 220° |
| 2026-05-05 06:23 | 26.47759 | 111.10068 | 36068 ft | 444 kts | 220° |
| 2026-05-05 06:24 | 26.42493 | 111.06516 | 36069 ft | 441 kts | 220° |
| 2026-05-05 06:24 | 26.37273 | 111.02988 | 36066 ft | 440 kts | 220° |
| 2026-05-05 06:25 | 26.32032 | 110.99430 | 36063 ft | 439 kts | 220° |
| 2026-05-05 06:25 | 26.26796 | 110.95869 | 36061 ft | 442 kts | 220° |
| 2026-05-05 06:26 | 26.21595 | 110.92337 | 36064 ft | 440 kts | 220° |
| 2026-05-05 06:26 | 26.16336 | 110.88767 | 36080 ft | 439 kts | 220° |
| 2026-05-05 06:27 | 26.08512 | 110.83467 | 36112 ft | 439 kts | 220° |
| 2026-05-05 06:28 | 26.03292 | 110.79936 | 36144 ft | 439 kts | 220° |
| 2026-05-05 06:28 | 25.98096 | 110.76405 | 36174 ft | 440 kts | 220° |
| 2026-05-05 06:29 | 25.92890 | 110.72871 | 36168 ft | 440 kts | 220° |
| 2026-05-05 06:29 | 25.87644 | 110.69318 | 36143 ft | 440 kts | 220° |
| 2026-05-05 06:30 | 25.82436 | 110.65788 | 36119 ft | 442 kts | 220° |
| 2026-05-05 06:30 | 25.77175 | 110.62233 | 36092 ft | 439 kts | 220° |
| 2026-05-05 06:31 | 25.71993 | 110.58713 | 36075 ft | 439 kts | 221° |
| 2026-05-05 06:31 | 25.66804 | 110.55115 | 36088 ft | 439 kts | 221° |
| 2026-05-05 06:32 | 25.61666 | 110.51537 | 36098 ft | 437 kts | 221° |
| 2026-05-05 06:32 | 25.56512 | 110.47954 | 36113 ft | 440 kts | 221° |
| 2026-05-05 06:33 | 25.51402 | 110.44298 | 36113 ft | 435 kts | 223° |
| 2026-05-05 06:33 | 25.46361 | 110.40556 | 36101 ft | 437 kts | 223° |
| 2026-05-05 06:34 | 25.41312 | 110.36801 | 36079 ft | 436 kts | 223° |
| 2026-05-05 06:34 | 25.36294 | 110.33049 | 36064 ft | 438 kts | 223° |
| 2026-05-05 06:35 | 25.31246 | 110.29276 | 36049 ft | 437 kts | 223° |
| 2026-05-05 06:35 | 25.26219 | 110.25532 | 36043 ft | 437 kts | 223° |
| 2026-05-05 06:36 | 25.21177 | 110.21786 | 36041 ft | 436 kts | 222° |
| 2026-05-05 06:36 | 25.16135 | 110.18031 | 36042 ft | 438 kts | 223° |
| 2026-05-05 06:37 | 25.11098 | 110.14271 | 36045 ft | 436 kts | 223° |
| 2026-05-05 06:37 | 25.06079 | 110.10525 | 36044 ft | 436 kts | 223° |
| 2026-05-05 06:38 | 25.01053 | 110.06779 | 36041 ft | 437 kts | 223° |
| 2026-05-05 06:38 | 24.96041 | 110.03048 | 36038 ft | 437 kts | 223° |
| 2026-05-05 06:39 | 24.90977 | 109.99279 | 36043 ft | 438 kts | 223° |
| 2026-05-05 06:39 | 24.85940 | 109.95538 | 36048 ft | 437 kts | 222° |
| 2026-05-05 06:40 | 24.80901 | 109.91801 | 36055 ft | 438 kts | 222° |
| 2026-05-05 06:40 | 24.75842 | 109.88054 | 35974 ft | 439 kts | 222° |
| 2026-05-05 06:40 | 24.73301 | 109.86169 | 35711 ft | 439 kts | 222° |
| 2026-05-05 06:41 | 24.70759 | 109.84290 | 35445 ft | 436 kts | 222° |
| 2026-05-05 06:41 | 24.68249 | 109.82436 | 35180 ft | 433 kts | 222° |
| 2026-05-05 06:41 | 24.65767 | 109.80602 | 34916 ft | 433 kts | 223° |
| 2026-05-05 06:41 | 24.63250 | 109.78728 | 34651 ft | 435 kts | 222° |
| 2026-05-05 06:42 | 24.60773 | 109.76883 | 34390 ft | 434 kts | 222° |
| 2026-05-05 06:42 | 24.58258 | 109.75011 | 34124 ft | 433 kts | 223° |
| 2026-05-05 06:42 | 24.55785 | 109.73170 | 33863 ft | 434 kts | 223° |
| 2026-05-05 06:42 | 24.53281 | 109.71306 | 33599 ft | 434 kts | 223° |
| 2026-05-05 06:43 | 24.50787 | 109.69452 | 33335 ft | 434 kts | 223° |
| 2026-05-05 06:43 | 24.48274 | 109.67587 | 33071 ft | 434 kts | 222° |
| 2026-05-05 06:43 | 24.45796 | 109.65747 | 32811 ft | 434 kts | 222° |
| 2026-05-05 06:43 | 24.43273 | 109.63875 | 32562 ft | 434 kts | 222° |
| 2026-05-05 06:44 | 24.40768 | 109.62017 | 32322 ft | 435 kts | 222° |
| 2026-05-05 06:44 | 24.38253 | 109.60152 | 32079 ft | 437 kts | 222° |
| 2026-05-05 06:44 | 24.35727 | 109.58281 | 31836 ft | 439 kts | 222° |
| 2026-05-05 06:44 | 24.33202 | 109.56417 | 31594 ft | 438 kts | 222° |
| 2026-05-05 06:45 | 24.30683 | 109.54561 | 31349 ft | 439 kts | 221° |
| 2026-05-05 06:45 | 24.28123 | 109.52674 | 31107 ft | 441 kts | 221° |
| 2026-05-05 06:45 | 24.25595 | 109.50812 | 30863 ft | 441 kts | 221° |
| 2026-05-05 06:45 | 24.23051 | 109.48938 | 30619 ft | 442 kts | 221° |
| 2026-05-05 06:46 | 24.20462 | 109.47033 | 30373 ft | 445 kts | 221° |
| 2026-05-05 06:46 | 24.17899 | 109.45146 | 30130 ft | 446 kts | 221° |
| 2026-05-05 06:46 | 24.15328 | 109.43258 | 29882 ft | 446 kts | 221° |
| 2026-05-05 06:46 | 24.12756 | 109.41369 | 29639 ft | 447 kts | 221° |
| 2026-05-05 06:47 | 24.10169 | 109.39470 | 29387 ft | 448 kts | 221° |
| 2026-05-05 06:47 | 24.07592 | 109.37581 | 29145 ft | 444 kts | 221° |
| 2026-05-05 06:47 | 24.05037 | 109.35709 | 28893 ft | 443 kts | 221° |
| 2026-05-05 06:47 | 24.02482 | 109.33836 | 28639 ft | 443 kts | 220° |
| 2026-05-05 06:48 | 23.99927 | 109.31964 | 28393 ft | 441 kts | 220° |
| 2026-05-05 06:48 | 23.97381 | 109.30100 | 28144 ft | 440 kts | 220° |
| 2026-05-05 06:48 | 23.94837 | 109.28238 | 27891 ft | 438 kts | 220° |
| 2026-05-05 06:48 | 23.92315 | 109.26394 | 27638 ft | 437 kts | 220° |
| 2026-05-05 06:49 | 23.89770 | 109.24532 | 27386 ft | 436 kts | 220° |
| 2026-05-05 06:49 | 23.87260 | 109.22696 | 27136 ft | 436 kts | 220° |
| 2026-05-05 06:49 | 23.84746 | 109.20856 | 26888 ft | 435 kts | 220° |
| 2026-05-05 06:49 | 23.82243 | 109.19027 | 26638 ft | 434 kts | 220° |
| 2026-05-05 06:50 | 23.79709 | 109.17223 | 26387 ft | 435 kts | 218° |
| 2026-05-05 06:50 | 23.77064 | 109.15594 | 26134 ft | 439 kts | 211° |
| 2026-05-05 06:50 | 23.74162 | 109.14397 | 25883 ft | 444 kts | 202° |
| 2026-05-05 06:50 | 23.71159 | 109.13605 | 25637 ft | 446 kts | 197° |
| 2026-05-05 06:51 | 23.68095 | 109.12998 | 25384 ft | 447 kts | 194° |
| 2026-05-05 06:51 | 23.65039 | 109.12483 | 25142 ft | 445 kts | 194° |
| 2026-05-05 06:51 | 23.61964 | 109.11999 | 24886 ft | 444 kts | 193° |
| 2026-05-05 06:51 | 23.58926 | 109.11523 | 24643 ft | 441 kts | 193° |
| 2026-05-05 06:52 | 23.55885 | 109.11039 | 24391 ft | 440 kts | 193° |
| 2026-05-05 06:52 | 23.52852 | 109.10545 | 24140 ft | 440 kts | 193° |
| 2026-05-05 06:52 | 23.49816 | 109.10041 | 23891 ft | 438 kts | 193° |
| 2026-05-05 06:52 | 23.46818 | 109.09537 | 23642 ft | 436 kts | 194° |
| 2026-05-05 06:53 | 23.43820 | 109.09026 | 23393 ft | 435 kts | 193° |
| 2026-05-05 06:53 | 23.40832 | 109.08514 | 23143 ft | 434 kts | 193° |
| 2026-05-05 06:53 | 23.37863 | 109.08003 | 22893 ft | 432 kts | 193° |
| 2026-05-05 06:53 | 23.34870 | 109.07488 | 22644 ft | 430 kts | 193° |
| 2026-05-05 06:54 | 23.31921 | 109.06979 | 22395 ft | 429 kts | 193° |
| 2026-05-05 06:54 | 23.28989 | 109.06473 | 22155 ft | 426 kts | 193° |
| 2026-05-05 06:54 | 23.26065 | 109.05969 | 21914 ft | 425 kts | 193° |
| 2026-05-05 06:54 | 23.23151 | 109.05466 | 21668 ft | 421 kts | 193° |
| 2026-05-05 06:55 | 23.20258 | 109.04967 | 21426 ft | 421 kts | 193° |
| 2026-05-05 06:55 | 23.17367 | 109.04469 | 21186 ft | 420 kts | 193° |
| 2026-05-05 06:55 | 23.14479 | 109.03970 | 20947 ft | 419 kts | 193° |
| 2026-05-05 06:55 | 23.11618 | 109.03477 | 20703 ft | 416 kts | 193° |
| 2026-05-05 06:56 | 23.08746 | 109.02982 | 20461 ft | 415 kts | 193° |
| 2026-05-05 06:56 | 23.05912 | 109.02493 | 20226 ft | 413 kts | 193° |
| 2026-05-05 06:56 | 23.03066 | 109.02003 | 19979 ft | 411 kts | 193° |
| 2026-05-05 06:56 | 23.00220 | 109.01513 | 19734 ft | 409 kts | 193° |
| 2026-05-05 06:57 | 22.97404 | 109.01028 | 19494 ft | 407 kts | 193° |
| 2026-05-05 06:57 | 22.94613 | 109.00549 | 19254 ft | 405 kts | 193° |
| 2026-05-05 06:57 | 22.91836 | 109.00073 | 19014 ft | 403 kts | 193° |
| 2026-05-05 06:57 | 22.89079 | 108.99599 | 18778 ft | 402 kts | 193° |
| 2026-05-05 06:58 | 22.86310 | 108.99123 | 18539 ft | 401 kts | 193° |
| 2026-05-05 06:58 | 22.83548 | 108.98647 | 18300 ft | 398 kts | 193° |
| 2026-05-05 06:58 | 22.80810 | 108.98177 | 18062 ft | 397 kts | 193° |
| 2026-05-05 06:58 | 22.78079 | 108.97707 | 17824 ft | 395 kts | 193° |
| 2026-05-05 06:59 | 22.75350 | 108.97240 | 17583 ft | 394 kts | 193° |
| 2026-05-05 06:59 | 22.72673 | 108.96780 | 17348 ft | 392 kts | 193° |
| 2026-05-05 06:59 | 22.69980 | 108.96298 | 16970 ft | 385 kts | 195° |
| 2026-05-05 06:59 | 22.67454 | 108.95506 | 16427 ft | 376 kts | 206° |
| 2026-05-05 07:00 | 22.65292 | 108.94044 | 15863 ft | 365 kts | 225° |
| 2026-05-05 07:00 | 22.63675 | 108.91972 | 15292 ft | 357 kts | 240° |
| 2026-05-05 07:00 | 22.62563 | 108.89604 | 14726 ft | 352 kts | 250° |
| 2026-05-05 07:00 | 22.61864 | 108.87081 | 14173 ft | 347 kts | 261° |
| 2026-05-05 07:01 | 22.61603 | 108.84499 | 13606 ft | 344 kts | 268° |
| 2026-05-05 07:01 | 22.61520 | 108.81924 | 13025 ft | 342 kts | 270° |
| 2026-05-05 07:01 | 22.61478 | 108.79392 | 12459 ft | 340 kts | 270° |
| 2026-05-05 07:01 | 22.61424 | 108.76826 | 11900 ft | 338 kts | 269° |
| 2026-05-05 07:02 | 22.61349 | 108.74322 | 11345 ft | 336 kts | 269° |
| 2026-05-05 07:02 | 22.61254 | 108.71802 | 10840 ft | 333 kts | 268° |
| 2026-05-05 07:02 | 22.61149 | 108.69337 | 10538 ft | 323 kts | 268° |
| 2026-05-05 07:02 | 22.61042 | 108.66985 | 10405 ft | 309 kts | 268° |
| 2026-05-05 07:03 | 22.60938 | 108.64716 | 10283 ft | 295 kts | 268° |
| 2026-05-05 07:03 | 22.60837 | 108.62524 | 10162 ft | 283 kts | 268° |
| 2026-05-05 07:03 | 22.60742 | 108.60464 | 10009 ft | 273 kts | 268° |
| 2026-05-05 07:03 | 22.60649 | 108.58425 | 9715 ft | 270 kts | 268° |
| 2026-05-05 07:04 | 22.60556 | 108.56406 | 9359 ft | 268 kts | 268° |
| 2026-05-05 07:04 | 22.60464 | 108.54400 | 9024 ft | 267 kts | 268° |
| 2026-05-05 07:04 | 22.60408 | 108.52408 | 8663 ft | 266 kts | 272° |
| 2026-05-05 07:04 | 22.60629 | 108.50436 | 8326 ft | 265 kts | 281° |
| 2026-05-05 07:05 | 22.61037 | 108.48485 | 8012 ft | 262 kts | 283° |
| 2026-05-05 07:05 | 22.61464 | 108.46603 | 7864 ft | 253 kts | 283° |
| 2026-05-05 07:05 | 22.61899 | 108.44814 | 7799 ft | 241 kts | 288° |
| 2026-05-05 07:05 | 22.62650 | 108.43216 | 7733 ft | 237 kts | 309° |
| 2026-05-05 07:06 | 22.63993 | 108.42213 | 7660 ft | 240 kts | 340° |
| 2026-05-05 07:06 | 22.65659 | 108.42004 | 7446 ft | 241 kts | 3° |
| 2026-05-05 07:06 | 22.67284 | 108.42423 | 7158 ft | 242 kts | 25° |
| 2026-05-05 07:06 | 22.68616 | 108.43524 | 6911 ft | 242 kts | 46° |
| 2026-05-05 07:07 | 22.69729 | 108.44895 | 6644 ft | 241 kts | 49° |
| 2026-05-05 07:07 | 22.70827 | 108.46259 | 6379 ft | 240 kts | 48° |
| 2026-05-05 07:07 | 22.71950 | 108.47590 | 6128 ft | 239 kts | 47° |
| 2026-05-05 07:07 | 22.73096 | 108.48878 | 5872 ft | 238 kts | 43° |
| 2026-05-05 07:08 | 22.74472 | 108.49865 | 5614 ft | 235 kts | 18° |
| 2026-05-05 07:08 | 22.76062 | 108.49950 | 5377 ft | 230 kts | 345° |
| 2026-05-05 07:08 | 22.77492 | 108.49215 | 5140 ft | 227 kts | 323° |
| 2026-05-05 07:08 | 22.78696 | 108.48109 | 4898 ft | 226 kts | 316° |
| 2026-05-05 07:09 | 22.79821 | 108.46925 | 4659 ft | 226 kts | 315° |
| 2026-05-05 07:09 | 22.80931 | 108.45727 | 4420 ft | 226 kts | 311° |
| 2026-05-05 07:09 | 22.81794 | 108.44334 | 4303 ft | 216 kts | 289° |
| 2026-05-05 07:09 | 22.81891 | 108.42788 | 4212 ft | 204 kts | 254° |
| 2026-05-05 07:10 | 22.81296 | 108.41414 | 3996 ft | 201 kts | 236° |
| 2026-05-05 07:10 | 22.80472 | 108.40198 | 3772 ft | 199 kts | 230° |
| 2026-05-05 07:10 | 22.79571 | 108.39069 | 3564 ft | 197 kts | 227° |
| 2026-05-05 07:10 | 22.78648 | 108.37985 | 3359 ft | 195 kts | 226° |
| 2026-05-05 07:11 | 22.77738 | 108.36932 | 3279 ft | 186 kts | 226° |
| 2026-05-05 07:11 | 22.76854 | 108.35915 | 3280 ft | 181 kts | 226° |
| 2026-05-05 07:11 | 22.76019 | 108.34955 | 3281 ft | 171 kts | 225° |
| 2026-05-05 07:11 | 22.75198 | 108.34007 | 3287 ft | 172 kts | 225° |
| 2026-05-05 07:12 | 22.74383 | 108.33064 | 3286 ft | 172 kts | 225° |
| 2026-05-05 07:12 | 22.73554 | 108.32111 | 3284 ft | 173 kts | 225° |
| 2026-05-05 07:12 | 22.72722 | 108.31157 | 3282 ft | 173 kts | 225° |
| 2026-05-05 07:12 | 22.71891 | 108.30203 | 3196 ft | 173 kts | 225° |
| 2026-05-05 07:13 | 22.71078 | 108.29270 | 2945 ft | 168 kts | 225° |
| 2026-05-05 07:13 | 22.70304 | 108.28381 | 2740 ft | 157 kts | 225° |
| 2026-05-05 07:13 | 22.69571 | 108.27541 | 2527 ft | 149 kts | 225° |
| 2026-05-05 07:13 | 22.68883 | 108.26756 | 2369 ft | 143 kts | 225° |
| 2026-05-05 07:14 | 22.68191 | 108.25961 | 2174 ft | 142 kts | 225° |
| 2026-05-05 07:14 | 22.67510 | 108.25182 | 1974 ft | 140 kts | 225° |
| 2026-05-05 07:14 | 22.66843 | 108.24421 | 1786 ft | 141 kts | 224° |
| 2026-05-05 07:14 | 22.66176 | 108.23653 | 1619 ft | 138 kts | 225° |
| 2026-05-05 07:15 | 22.65513 | 108.22897 | 1439 ft | 138 kts | 225° |
| 2026-05-05 07:15 | 22.64854 | 108.22141 | 1263 ft | 140 kts | 225° |
| 2026-05-05 07:15 | 22.64157 | 108.21371 | 1144 ft | 143 kts | 223° |
| 2026-05-05 07:15 | 22.63470 | 108.20586 | 997 ft | 145 kts | 227° |
| 2026-05-05 07:16 | 22.62799 | 108.19790 | 818 ft | 145 kts | 226° |
| 2026-05-05 07:16 | 22.62089 | 108.18969 | 562 ft | 148 kts | 226° |
| 2026-05-05 07:16 | 22.61406 | 108.18191 | 438 ft | 136 kts | 225° |
| 2026-05-05 07:16 | 22.60844 | 108.17547 | 422 ft | 97 kts | 227° |
| 2026-05-05 07:17 | 22.60466 | 108.17110 | 420 ft | 54 kts | 227° |
| 2026-05-05 07:17 | 22.60262 | 108.16882 | 419 ft | 40 kts | 224° |
| 2026-05-05 07:17 | 22.60127 | 108.16726 | 421 ft | 8 kts | 217° |
| 2026-05-05 07:17 | 22.60070 | 108.16734 | 420 ft | 9 kts | 141° |
| 2026-05-05 07:18 | 22.60014 | 108.16788 | 419 ft | 11 kts | 132° |
| 2026-05-05 07:18 | 22.60031 | 108.16871 | 418 ft | 14 kts | 47° |
| 2026-05-05 07:18 | 22.60103 | 108.16953 | 416 ft | 16 kts | 47° |
| 2026-05-05 07:18 | 22.60185 | 108.17047 | 416 ft | 17 kts | 46° |
| 2026-05-05 07:19 | 22.60272 | 108.17147 | 417 ft | 18 kts | 46° |
| 2026-05-05 07:19 | 22.60364 | 108.17252 | 417 ft | 21 kts | 46° |
| 2026-05-05 07:19 | 22.60466 | 108.17370 | 418 ft | 17 kts | 48° |
| 2026-05-05 07:19 | 22.60530 | 108.17447 | 417 ft | 7 kts | 59° |
| 2026-05-05 07:20 | 22.60509 | 108.17502 | 416 ft | 10 kts | 136° |
| 2026-05-05 07:20 | 22.60451 | 108.17560 | 415 ft | 12 kts | 136° |
| 2026-05-05 07:20 | 22.60386 | 108.17629 | 413 ft | 14 kts | 135° |
| 2026-05-05 07:20 | 22.60322 | 108.17696 | 412 ft | 11 kts | 137° |
| 2026-05-05 07:21 | 22.60285 | 108.17748 | 412 ft | 8 kts | 110° |
| 2026-05-05 07:21 | 22.60251 | 108.17798 | 412 ft | 7 kts | 135° |
| 2026-05-05 07:21 | 22.60243 | 108.17807 | 412 ft | 0 kts | 136° |